createdAt,value
2022-10-29T00:00:34.736Z,7.20
2022-10-29T00:01:31.380Z,6.75
2022-10-29T00:02:28.164Z,6.82
2022-10-29T00:03:25.157Z,5.15
2022-10-29T00:04:21.861Z,7.03
2022-10-29T00:05:18.555Z,7.20
2022-10-29T00:06:15.153Z,8.18
2022-10-29T00:07:11.831Z,8.38
2022-10-29T00:08:08.417Z,10.25
2022-10-29T00:09:05.794Z,6.97
2022-10-29T00:10:02.626Z,7.03
2022-10-29T00:11:25.524Z,7.30
2022-10-29T00:12:22.140Z,14.93
2022-10-29T00:13:18.891Z,4.32
2022-10-29T00:14:16.248Z,8.30
2022-10-29T00:15:12.904Z,6.20
2022-10-29T00:16:18.771Z,5.13
2022-10-29T00:17:15.934Z,7.28
2022-10-29T00:18:12.553Z,9.20
2022-10-29T00:19:09.468Z,6.93
2022-10-29T00:21:12.600Z,7.45
2022-10-29T00:22:09.172Z,5.05
2022-10-29T00:23:05.742Z,8.93
2022-10-29T00:24:02.335Z,8.48
2022-10-29T00:24:59.163Z,5.30
2022-10-29T00:25:57.356Z,4.97
2022-10-29T00:26:54.140Z,8.73
2022-10-29T00:27:50.694Z,4.55
2022-10-29T00:28:47.577Z,4.05
2022-10-29T00:29:44.244Z,7.22
2022-10-29T00:30:40.830Z,6.30
2022-10-29T00:31:37.465Z,7.63
2022-10-29T00:32:34.057Z,5.28
2022-10-29T00:33:30.946Z,5.55
2022-10-29T00:34:27.534Z,6.85
2022-10-29T00:35:24.182Z,6.43
2022-10-29T00:36:24.316Z,7.50
2022-10-29T00:37:20.984Z,6.80
2022-10-29T00:38:17.611Z,5.80
2022-10-29T00:39:17.893Z,5.43
2022-10-29T00:40:14.513Z,7.38
2022-10-29T00:41:15.148Z,5.18
2022-10-29T00:42:18.291Z,7.45
2022-10-29T00:43:16.722Z,8.82
2022-10-29T00:44:27.411Z,9.10
2022-10-29T00:45:24.033Z,12.50
2022-10-29T00:46:35.574Z,7.90
2022-10-29T00:47:36.043Z,8.85
2022-10-29T00:48:36.038Z,8.65
2022-10-29T00:49:34.976Z,8.23
2022-10-29T00:50:31.704Z,7.55
2022-10-29T00:51:31.209Z,9.73
2022-10-29T00:52:32.185Z,12.23
2022-10-29T00:53:33.534Z,10.02
2022-10-29T00:54:34.521Z,7.32
2022-10-29T00:55:32.052Z,8.80
2022-10-29T00:56:31.740Z,9.30
2022-10-29T00:57:36.705Z,11.15
2022-10-29T00:58:33.466Z,9.25
2022-10-29T00:59:30.326Z,11.38
2022-10-29T01:00:27.145Z,5.78
2022-10-29T01:01:23.958Z,8.73
2022-10-29T01:02:21.501Z,6.70
2022-10-29T01:03:18.192Z,7.97
2022-10-29T01:04:14.933Z,10.38
2022-10-29T01:05:13.590Z,9.05
2022-10-29T01:06:10.422Z,9.27
2022-10-29T01:07:07.230Z,9.05
2022-10-29T01:08:04.147Z,12.05
2022-10-29T01:09:00.768Z,9.43
2022-10-29T01:09:57.797Z,10.95
2022-10-29T01:10:57.696Z,11.50
2022-10-29T01:12:28.311Z,12.38
2022-10-29T01:13:40.246Z,11.38
2022-10-29T01:15:08.817Z,13.10
2022-10-29T01:16:33.054Z,6.85
2022-10-29T01:17:47.970Z,8.35
2022-10-29T01:18:58.210Z,5.78
2022-10-29T01:20:32.094Z,5.55
2022-10-29T01:21:45.266Z,5.90
2022-10-29T01:23:50.417Z,4.05
2022-10-29T01:25:12.749Z,6.43
2022-10-29T01:26:24.688Z,5.10
2022-10-29T01:27:39.234Z,6.78
2022-10-29T01:29:09.351Z,7.05
2022-10-29T01:30:28.681Z,7.35
2022-10-29T01:31:45.990Z,6.05
2022-10-29T01:32:51.454Z,5.10
2022-10-29T01:33:53.868Z,9.25
2022-10-29T01:35:02.573Z,9.52
2022-10-29T01:36:16.189Z,5.05
2022-10-29T01:37:26.370Z,8.35
2022-10-29T01:38:31.083Z,5.72
2022-10-29T01:39:42.856Z,4.70
2022-10-29T01:40:50.054Z,7.90
2022-10-29T01:42:24.768Z,4.55
2022-10-29T01:43:30.197Z,6.65
2022-10-29T01:44:40.114Z,5.07
2022-10-29T01:45:43.282Z,4.28
2022-10-29T01:46:47.369Z,3.83
2022-10-29T01:47:51.323Z,4.57
2022-10-29T01:48:51.413Z,8.38
2022-10-29T01:49:53.187Z,8.07
2022-10-29T01:50:54.806Z,5.45
2022-10-29T01:51:54.098Z,5.35
2022-10-29T01:52:52.605Z,5.68
2022-10-29T01:53:50.814Z,6.38
2022-10-29T01:54:48.083Z,8.40
2022-10-29T01:55:44.718Z,7.78
2022-10-29T01:56:41.514Z,6.15
2022-10-29T01:57:39.025Z,9.23
2022-10-29T01:58:37.539Z,6.70
2022-10-29T01:59:43.239Z,5.70
2022-10-29T02:00:55.199Z,6.28
2022-10-29T02:02:21.587Z,4.22
2022-10-29T02:03:43.263Z,6.38
2022-10-29T02:04:53.591Z,8.77
2022-10-29T02:05:50.107Z,5.22
2022-10-29T02:06:59.502Z,10.27
2022-10-29T02:08:02.162Z,5.65
2022-10-29T02:09:18.970Z,5.93
2022-10-29T02:10:27.781Z,5.03
2022-10-29T02:11:30.844Z,5.75
2022-10-29T02:12:34.920Z,4.78
2022-10-29T02:13:39.321Z,4.63
2022-10-29T02:14:41.012Z,9.70
2022-10-29T02:15:48.463Z,7.40
2022-10-29T02:16:47.146Z,7.38
2022-10-29T02:17:44.207Z,7.60
2022-10-29T02:18:43.077Z,7.00
2022-10-29T02:19:39.830Z,9.63
2022-10-29T02:20:41.900Z,6.57
2022-10-29T02:21:40.432Z,7.10
2022-10-29T02:22:37.125Z,6.13
2022-10-29T02:23:33.765Z,8.02
2022-10-29T02:24:30.493Z,6.45
2022-10-29T02:25:28.011Z,10.55
2022-10-29T02:26:24.664Z,5.40
2022-10-29T02:27:21.250Z,8.68
2022-10-29T02:28:17.828Z,8.02
2022-10-29T02:29:14.496Z,7.63
2022-10-29T02:30:11.231Z,8.73
2022-10-29T02:31:08.145Z,6.10
2022-10-29T02:32:05.044Z,8.25
2022-10-29T02:33:01.599Z,7.85
2022-10-29T02:33:58.198Z,4.95
2022-10-29T02:34:54.834Z,9.45
2022-10-29T02:35:51.508Z,8.05
2022-10-29T02:36:48.066Z,15.10
2022-10-29T02:37:44.780Z,12.23
2022-10-29T02:38:41.317Z,8.18
2022-10-29T02:39:37.870Z,10.63
2022-10-29T02:40:34.444Z,8.18
2022-10-29T02:41:31.060Z,11.07
2022-10-29T02:42:27.665Z,9.02
2022-10-29T02:43:24.242Z,8.70
2022-10-29T02:44:20.808Z,7.28
2022-10-29T02:45:17.397Z,8.88
2022-10-29T02:46:16.750Z,9.25
2022-10-29T02:47:13.380Z,7.57
2022-10-29T02:48:10.010Z,10.05
2022-10-29T02:49:07.534Z,8.30
2022-10-29T02:50:04.429Z,9.60
2022-10-29T02:51:01.005Z,8.18
2022-10-29T02:51:57.567Z,12.65
2022-10-29T02:52:54.309Z,13.15
2022-10-29T02:53:50.886Z,6.13
2022-10-29T02:54:47.445Z,7.20
2022-10-29T02:55:44.056Z,8.45
2022-10-29T02:56:40.615Z,6.68
2022-10-29T02:57:37.205Z,10.48
2022-10-29T02:58:34.853Z,7.30
2022-10-29T02:59:31.430Z,9.52
2022-10-29T03:00:28.054Z,8.32
2022-10-29T03:01:24.864Z,5.05
2022-10-29T03:02:21.789Z,12.02
2022-10-29T03:03:19.044Z,14.10
2022-10-29T03:04:15.707Z,8.60
2022-10-29T03:05:12.242Z,6.25
2022-10-29T03:06:15.697Z,13.32
2022-10-29T03:07:12.522Z,9.10
2022-10-29T03:08:09.111Z,8.75
2022-10-29T03:09:05.840Z,12.82
2022-10-29T03:10:04.436Z,11.63
2022-10-29T03:11:00.957Z,8.65
2022-10-29T03:11:57.594Z,9.60
2022-10-29T03:12:54.614Z,8.13
2022-10-29T03:13:51.408Z,10.90
2022-10-29T03:14:47.994Z,10.02
2022-10-29T03:15:47.816Z,10.57
2022-10-29T03:16:44.454Z,8.20
2022-10-29T03:17:41.018Z,11.25
2022-10-29T03:18:37.627Z,9.73
2022-10-29T03:19:34.163Z,9.90
2022-10-29T03:20:31.739Z,8.45
2022-10-29T03:21:28.317Z,8.52
2022-10-29T03:22:24.904Z,8.30
2022-10-29T03:23:22.334Z,8.50
2022-10-29T03:24:18.895Z,16.15
2022-10-29T03:25:15.611Z,11.75
2022-10-29T03:26:12.211Z,9.43
2022-10-29T03:27:08.897Z,13.23
2022-10-29T03:28:05.745Z,10.95
2022-10-29T03:29:02.468Z,12.70
2022-10-29T03:29:59.054Z,16.75
2022-10-29T03:30:55.633Z,16.10
2022-10-29T03:31:52.221Z,13.25
2022-10-29T03:32:48.997Z,11.65
2022-10-29T03:33:45.685Z,10.05
2022-10-29T03:34:42.236Z,12.18
2022-10-29T03:35:38.902Z,7.20
2022-10-29T03:36:35.497Z,9.65
2022-10-29T03:37:32.036Z,10.02
2022-10-29T03:38:29.275Z,8.15
2022-10-29T03:39:25.868Z,13.05
2022-10-29T03:40:22.437Z,10.43
2022-10-29T03:41:19.054Z,12.38
2022-10-29T03:42:15.609Z,7.90
2022-10-29T03:43:12.155Z,15.60
2022-10-29T03:44:08.722Z,14.63
2022-10-29T03:45:05.711Z,19.70
2022-10-29T03:46:02.641Z,18.48
2022-10-29T03:46:59.315Z,6.93
2022-10-29T03:47:57.614Z,10.43
2022-10-29T03:48:55.160Z,15.98
2022-10-29T03:49:51.713Z,9.20
2022-10-29T03:51:01.432Z,9.18
2022-10-29T03:51:57.990Z,9.40
2022-10-29T03:52:54.562Z,10.15
2022-10-29T03:53:51.193Z,14.30
2022-10-29T03:54:47.757Z,13.68
2022-10-29T03:55:44.302Z,15.05
2022-10-29T03:56:40.926Z,12.57
2022-10-29T03:57:37.463Z,10.23
2022-10-29T03:58:34.050Z,8.50
2022-10-29T03:59:30.645Z,10.60
2022-10-29T04:00:27.254Z,11.32
2022-10-29T04:01:23.980Z,9.63
2022-10-29T04:02:20.966Z,6.10
2022-10-29T04:03:17.703Z,9.23
2022-10-29T04:04:14.270Z,8.55
2022-10-29T04:05:10.805Z,6.78
2022-10-29T04:06:15.294Z,10.52
2022-10-29T04:07:12.323Z,6.00
2022-10-29T04:08:08.877Z,9.13
2022-10-29T04:09:05.464Z,10.00
2022-10-29T04:10:02.156Z,16.10
2022-10-29T04:10:58.741Z,14.93
2022-10-29T04:11:55.318Z,12.25
2022-10-29T04:12:51.862Z,10.85
2022-10-29T04:13:52.550Z,10.40
2022-10-29T04:15:45.924Z,14.52
2022-10-29T04:16:42.519Z,10.70
2022-10-29T04:17:39.177Z,9.35
2022-10-29T04:18:35.950Z,12.27
2022-10-29T04:19:32.585Z,14.80
2022-10-29T04:21:03.056Z,14.23
2022-10-29T04:29:25.462Z,10.88
2022-10-29T04:30:23.280Z,7.43
2022-10-29T04:31:20.036Z,10.65
2022-10-29T04:32:16.647Z,10.93
2022-10-29T04:33:13.192Z,8.32
2022-10-29T04:34:09.801Z,8.80
2022-10-29T04:35:06.893Z,6.93
2022-10-29T04:36:04.047Z,7.32
2022-10-29T04:37:00.639Z,9.77
2022-10-29T04:37:57.288Z,9.07
2022-10-29T04:38:54.010Z,12.68
2022-10-29T04:39:50.857Z,9.13
2022-10-29T04:40:47.424Z,11.00
2022-10-29T04:41:43.963Z,9.48
2022-10-29T04:42:40.738Z,9.77
2022-10-29T04:43:37.346Z,9.60
2022-10-29T04:44:34.064Z,11.38
2022-10-29T04:45:30.680Z,10.32
2022-10-29T04:46:27.289Z,11.35
2022-10-29T04:47:23.834Z,17.42
2022-10-29T04:48:21.216Z,11.88
2022-10-29T04:49:17.993Z,9.25
2022-10-29T04:50:14.818Z,9.02
2022-10-29T04:51:29.667Z,9.27
2022-10-29T04:52:26.607Z,13.88
2022-10-29T04:53:26.293Z,15.82
2022-10-29T04:54:22.850Z,14.07
2022-10-29T04:55:19.496Z,11.15
2022-10-29T04:56:16.986Z,12.98
2022-10-29T04:57:13.710Z,15.07
2022-10-29T04:58:18.275Z,11.18
2022-10-29T04:59:14.828Z,13.05
2022-10-29T05:00:16.280Z,12.35
2022-10-29T05:01:15.452Z,9.50
2022-10-29T05:02:12.166Z,13.38
2022-10-29T05:03:09.127Z,12.07
2022-10-29T05:04:05.730Z,11.85
2022-10-29T05:05:02.354Z,12.65
2022-10-29T05:05:59.236Z,17.67
2022-10-29T05:06:55.849Z,10.70
2022-10-29T05:08:00.683Z,10.40
2022-10-29T05:08:57.385Z,9.77
2022-10-29T05:09:53.946Z,11.82
2022-10-29T05:10:50.533Z,14.45
2022-10-29T05:11:47.107Z,9.63
2022-10-29T05:12:43.645Z,9.10
2022-10-29T05:13:40.369Z,9.88
2022-10-29T05:14:36.957Z,8.07
2022-10-29T05:15:34.094Z,8.88
2022-10-29T05:16:30.662Z,9.40
2022-10-29T05:17:27.240Z,14.85
2022-10-29T05:18:24.124Z,10.07
2022-10-29T05:19:20.731Z,7.40
2022-10-29T05:20:17.398Z,12.95
2022-10-29T05:21:14.013Z,8.90
2022-10-29T05:22:11.345Z,8.77
2022-10-29T05:23:11.549Z,5.90
2022-10-29T05:24:08.281Z,8.15
2022-10-29T05:25:05.317Z,11.00
2022-10-29T05:26:01.899Z,10.20
2022-10-29T05:26:58.457Z,8.15
2022-10-29T05:28:05.602Z,7.63
2022-10-29T05:29:02.253Z,8.07
2022-10-29T05:29:58.886Z,7.25
2022-10-29T05:30:55.535Z,8.70
2022-10-29T05:31:54.577Z,8.82
2022-10-29T05:32:51.167Z,8.27
2022-10-29T05:33:49.937Z,9.32
2022-10-29T05:34:49.107Z,7.47
2022-10-29T05:35:46.146Z,8.95
2022-10-29T05:36:42.769Z,6.97
2022-10-29T05:37:39.440Z,7.93
2022-10-29T05:38:36.278Z,8.55
2022-10-29T05:39:32.817Z,11.90
2022-10-29T05:40:30.028Z,16.33
2022-10-29T05:41:27.173Z,18.52
2022-10-29T05:42:23.796Z,8.90
2022-10-29T05:43:20.444Z,12.15
2022-10-29T05:44:16.994Z,8.60
2022-10-29T05:45:13.761Z,7.65
2022-10-29T05:46:10.364Z,9.20
2022-10-29T05:47:07.023Z,7.30
2022-10-29T05:48:04.439Z,8.55
2022-10-29T05:49:01.040Z,8.00
2022-10-29T05:49:57.590Z,6.85
2022-10-29T05:50:54.183Z,8.02
2022-10-29T05:51:50.815Z,8.25
2022-10-29T05:52:58.419Z,9.13
2022-10-29T05:53:55.320Z,7.88
2022-10-29T05:54:51.985Z,9.00
2022-10-29T05:55:48.614Z,7.80
2022-10-29T05:56:45.148Z,8.52
2022-10-29T05:57:41.758Z,9.25
2022-10-29T05:58:38.495Z,6.32
2022-10-29T05:59:35.059Z,7.13
2022-10-29T06:00:34.000Z,7.35
2022-10-29T06:01:30.606Z,9.90
2022-10-29T06:02:27.377Z,9.45
2022-10-29T06:03:24.087Z,7.80
2022-10-29T06:04:20.741Z,10.07
2022-10-29T06:05:17.398Z,8.48
2022-10-29T06:06:14.137Z,7.57
2022-10-29T06:07:10.769Z,10.88
2022-10-29T06:08:07.558Z,7.93
2022-10-29T06:09:04.461Z,10.50
2022-10-29T06:10:01.037Z,7.32
2022-10-29T06:11:01.013Z,9.57
2022-10-29T06:11:57.628Z,8.35
2022-10-29T06:12:54.234Z,7.78
2022-10-29T06:13:50.789Z,9.20
2022-10-29T06:14:47.386Z,12.20
2022-10-29T06:15:44.603Z,8.75
2022-10-29T06:16:41.701Z,9.63
2022-10-29T06:17:45.516Z,11.93
2022-10-29T06:18:42.091Z,9.38
2022-10-29T06:20:40.595Z,9.80
2022-10-29T06:21:37.211Z,9.70
2022-10-29T06:22:33.785Z,9.18
2022-10-29T06:23:30.520Z,10.05
2022-10-29T06:24:30.546Z,8.30
2022-10-29T06:25:30.181Z,8.65
2022-10-29T06:26:26.812Z,10.20
2022-10-29T06:27:23.422Z,8.77
2022-10-29T06:28:20.493Z,11.13
2022-10-29T06:29:17.109Z,8.82
2022-10-29T06:30:13.797Z,7.57
2022-10-29T06:31:10.413Z,6.60
2022-10-29T06:32:07.005Z,8.95
2022-10-29T06:33:04.877Z,8.60
2022-10-29T06:34:01.465Z,12.52
2022-10-29T06:34:58.196Z,10.70
2022-10-29T06:35:58.588Z,9.60
2022-10-29T06:36:55.898Z,8.52
2022-10-29T06:37:52.589Z,10.25
2022-10-29T06:38:49.332Z,11.13
2022-10-29T06:39:45.892Z,8.10
2022-10-29T06:40:43.067Z,5.50
2022-10-29T06:41:39.678Z,7.63
2022-10-29T06:42:36.214Z,7.50
2022-10-29T06:43:32.991Z,9.75
2022-10-29T06:44:29.598Z,12.63
2022-10-29T06:45:26.158Z,9.40
2022-10-29T06:46:22.769Z,6.82
2022-10-29T06:47:19.365Z,8.25
2022-10-29T06:48:20.658Z,8.70
2022-10-29T06:49:18.768Z,7.72
2022-10-29T06:50:15.495Z,9.70
2022-10-29T06:51:12.138Z,9.32
2022-10-29T06:52:08.862Z,7.60
2022-10-29T06:53:07.779Z,9.60
2022-10-29T06:54:04.502Z,6.82
2022-10-29T06:55:03.841Z,10.60
2022-10-29T06:56:00.480Z,8.18
2022-10-29T06:56:57.084Z,7.85
2022-10-29T06:58:01.899Z,9.18
2022-10-29T06:58:58.473Z,8.35
2022-10-29T06:59:55.556Z,7.72
2022-10-29T07:00:52.497Z,7.60
2022-10-29T07:01:49.332Z,6.97
2022-10-29T07:02:46.012Z,8.50
2022-10-29T07:03:42.592Z,9.63
2022-10-29T07:04:39.203Z,8.20
2022-10-29T07:05:36.386Z,10.57
2022-10-29T07:06:34.495Z,10.73
2022-10-29T07:07:31.060Z,9.95
2022-10-29T07:08:28.955Z,7.43
2022-10-29T07:09:25.603Z,9.80
2022-10-29T07:10:22.156Z,10.63
2022-10-29T07:11:18.779Z,9.13
2022-10-29T07:12:15.378Z,14.70
2022-10-29T07:13:12.053Z,8.98
2022-10-29T07:14:09.924Z,10.30
2022-10-29T07:15:06.811Z,10.63
2022-10-29T07:16:03.503Z,7.82
2022-10-29T07:17:00.211Z,10.20
2022-10-29T07:17:57.910Z,12.70
2022-10-29T07:18:54.689Z,8.50
2022-10-29T07:19:51.230Z,13.75
2022-10-29T07:20:47.801Z,13.27
2022-10-29T07:21:44.451Z,8.80
2022-10-29T07:22:47.078Z,7.45
2022-10-29T07:23:43.598Z,7.95
2022-10-29T07:24:40.140Z,8.52
2022-10-29T07:25:38.494Z,16.30
2022-10-29T07:26:35.925Z,9.02
2022-10-29T07:27:32.521Z,12.10
2022-10-29T07:28:29.138Z,9.73
2022-10-29T07:29:25.723Z,13.45
2022-10-29T07:30:22.592Z,10.32
2022-10-29T07:31:19.169Z,8.45
2022-10-29T07:32:15.844Z,9.30
2022-10-29T07:33:12.561Z,10.75
2022-10-29T07:34:09.158Z,8.70
2022-10-29T07:35:06.222Z,11.77
2022-10-29T07:36:02.832Z,9.50
2022-10-29T07:36:59.441Z,9.35
2022-10-29T07:38:08.891Z,11.48
2022-10-29T07:39:07.499Z,11.27
2022-10-29T07:40:05.071Z,13.60
2022-10-29T07:41:01.615Z,17.08
2022-10-29T07:41:59.308Z,11.10
2022-10-29T07:42:56.450Z,9.88
2022-10-29T07:43:53.147Z,13.27
2022-10-29T07:44:49.889Z,13.57
2022-10-29T07:45:51.311Z,12.13
2022-10-29T07:46:47.877Z,9.32
2022-10-29T07:47:44.488Z,10.88
2022-10-29T07:48:41.038Z,12.25
2022-10-29T07:49:37.648Z,13.15
2022-10-29T07:50:34.234Z,17.70
2022-10-29T07:51:30.952Z,11.88
2022-10-29T07:52:27.623Z,13.20
2022-10-29T07:53:24.206Z,10.43
2022-10-29T07:54:20.841Z,10.30
2022-10-29T07:55:17.451Z,9.15
2022-10-29T07:56:14.063Z,17.02
2022-10-29T07:57:10.695Z,12.32
2022-10-29T07:58:11.116Z,13.77
2022-10-29T07:59:09.243Z,13.32
2022-10-29T08:00:06.354Z,16.92
2022-10-29T08:01:02.980Z,12.82
2022-10-29T08:01:59.605Z,12.75
2022-10-29T08:02:57.308Z,13.82
2022-10-29T08:03:53.874Z,10.15
2022-10-29T08:04:50.459Z,10.75
2022-10-29T08:05:53.725Z,12.05
2022-10-29T08:06:53.017Z,18.35
2022-10-29T08:07:49.726Z,13.15
2022-10-29T08:08:46.324Z,12.63
2022-10-29T08:09:43.106Z,13.63
2022-10-29T08:10:39.836Z,14.38
2022-10-29T08:11:36.473Z,10.45
2022-10-29T08:12:33.094Z,11.13
2022-10-29T08:13:29.999Z,13.68
2022-10-29T08:14:26.582Z,14.35
2022-10-29T08:15:24.333Z,11.80
2022-10-29T08:16:20.882Z,17.33
2022-10-29T08:17:17.468Z,12.23
2022-10-29T08:18:16.366Z,14.57
2022-10-29T08:19:13.094Z,14.23
2022-10-29T08:20:10.049Z,11.27
2022-10-29T08:21:07.016Z,10.95
2022-10-29T08:22:03.636Z,12.77
2022-10-29T08:23:01.197Z,9.82
2022-10-29T08:23:58.201Z,18.55
2022-10-29T08:24:54.803Z,13.23
2022-10-29T08:25:51.398Z,14.77
2022-10-29T08:26:49.611Z,12.85
2022-10-29T08:27:46.280Z,13.07
2022-10-29T08:28:43.023Z,15.38
2022-10-29T08:29:39.594Z,11.07
2022-10-29T08:30:36.625Z,17.65
2022-10-29T08:31:33.629Z,14.13
2022-10-29T08:32:30.227Z,14.52
2022-10-29T08:33:26.797Z,19.65
2022-10-29T08:34:23.376Z,12.52
2022-10-29T08:35:19.962Z,14.85
2022-10-29T08:36:16.791Z,8.38
2022-10-29T08:37:13.343Z,12.73
2022-10-29T08:38:09.928Z,12.70
2022-10-29T08:39:06.505Z,9.50
2022-10-29T08:40:03.119Z,13.60
2022-10-29T08:41:25.210Z,11.27
2022-10-29T08:42:52.866Z,10.85
2022-10-29T08:44:06.730Z,8.70
2022-10-29T08:45:46.632Z,9.45
2022-10-29T08:46:51.751Z,10.07
2022-10-29T08:48:17.956Z,11.35
2022-10-29T08:49:19.939Z,14.90
2022-10-29T08:50:25.275Z,12.18
2022-10-29T08:51:32.253Z,13.38
2022-10-29T08:52:33.935Z,13.75
2022-10-29T08:54:10.230Z,10.18
2022-10-29T08:55:19.066Z,9.05
2022-10-29T08:56:20.071Z,8.50
2022-10-29T08:57:19.321Z,9.15
2022-10-29T08:58:31.071Z,11.70
2022-10-29T08:59:32.575Z,14.40
2022-10-29T09:00:34.100Z,15.77
2022-10-29T09:01:31.030Z,9.80
2022-10-29T09:02:30.125Z,7.28
2022-10-29T09:03:29.796Z,8.73
2022-10-29T09:04:33.170Z,7.85
2022-10-29T09:05:49.247Z,9.20
2022-10-29T09:06:57.347Z,12.77
2022-10-29T09:08:08.098Z,12.80
2022-10-29T09:09:40.100Z,11.25
2022-10-29T09:10:36.679Z,11.10
2022-10-29T09:12:20.554Z,9.75
2022-10-29T09:13:29.029Z,11.85
2022-10-29T09:14:37.640Z,10.77
2022-10-29T09:16:10.750Z,13.55
2022-10-29T09:17:12.972Z,10.18
2022-10-29T09:18:21.080Z,7.03
2022-10-29T09:19:49.687Z,7.32
2022-10-29T09:20:58.397Z,7.70
2022-10-29T09:22:15.209Z,8.25
2022-10-29T09:24:03.029Z,9.77
2022-10-29T09:25:33.230Z,7.35
2022-10-29T09:26:53.202Z,6.65
2022-10-29T09:28:21.889Z,9.77
2022-10-29T09:29:24.134Z,11.52
2022-10-29T09:30:21.225Z,9.73
2022-10-29T09:31:17.934Z,8.32
2022-10-29T09:32:17.317Z,10.88
2022-10-29T09:33:20.240Z,13.45
2022-10-29T09:34:29.019Z,10.98
2022-10-29T09:35:48.093Z,7.55
2022-10-29T09:36:46.799Z,8.35
2022-10-29T09:37:52.299Z,6.85
2022-10-29T09:39:02.453Z,14.32
2022-10-29T09:40:00.561Z,7.03
2022-10-29T09:40:59.352Z,14.00
2022-10-29T09:41:58.159Z,8.23
2022-10-29T09:42:55.660Z,8.50
2022-10-29T09:43:52.216Z,9.60
2022-10-29T09:44:58.885Z,7.28
2022-10-29T09:46:04.514Z,10.50
2022-10-29T09:47:13.266Z,8.52
2022-10-29T09:48:52.607Z,9.55
2022-10-29T09:50:11.674Z,13.02
2022-10-29T09:51:17.312Z,10.63
2022-10-29T09:52:24.113Z,7.00
2022-10-29T09:53:21.063Z,9.68
2022-10-29T09:54:18.073Z,12.32
2022-10-29T09:55:44.674Z,8.27
2022-10-29T09:56:43.628Z,8.77
2022-10-29T09:57:40.990Z,6.78
2022-10-29T09:58:42.192Z,10.48
2022-10-29T09:59:44.560Z,8.95
2022-10-29T10:00:41.266Z,9.05
2022-10-29T10:01:37.993Z,6.60
2022-10-29T10:02:43.122Z,7.93
2022-10-29T10:03:48.938Z,9.98
2022-10-29T10:04:49.251Z,10.93
2022-10-29T10:06:02.711Z,8.98
2022-10-29T10:07:04.609Z,11.68
2022-10-29T10:08:13.132Z,8.02
2022-10-29T10:09:09.709Z,9.38
2022-10-29T10:10:27.706Z,9.38
2022-10-29T10:11:24.980Z,6.80
2022-10-29T10:12:36.431Z,8.10
2022-10-29T10:13:50.189Z,6.45
2022-10-29T10:14:48.107Z,5.80
2022-10-29T10:15:54.101Z,6.28
2022-10-29T10:17:01.604Z,7.95
2022-10-29T10:18:06.025Z,11.05
2022-10-29T10:19:02.761Z,7.43
2022-10-29T10:19:59.343Z,7.72
2022-10-29T10:21:11.754Z,5.32
2022-10-29T10:22:20.532Z,6.97
2022-10-29T10:23:40.017Z,6.30
2022-10-29T10:24:38.494Z,10.02
2022-10-29T10:25:39.047Z,13.38
2022-10-29T10:26:53.457Z,8.00
2022-10-29T10:27:49.995Z,9.57
2022-10-29T10:29:03.075Z,7.47
2022-10-29T10:31:12.650Z,6.45
2022-10-29T10:32:18.606Z,8.32
2022-10-29T10:33:26.310Z,7.63
2022-10-29T10:34:35.892Z,6.63
2022-10-29T10:35:35.462Z,4.60
2022-10-29T10:36:32.093Z,6.00
2022-10-29T10:37:32.758Z,6.22
2022-10-29T10:38:29.433Z,9.65
2022-10-29T10:39:30.310Z,8.77
2022-10-29T10:40:28.005Z,12.45
2022-10-29T10:41:28.791Z,7.95
2022-10-29T10:42:37.242Z,6.63
2022-10-29T10:43:34.874Z,6.97
2022-10-29T10:44:32.180Z,8.10
2022-10-29T10:45:39.216Z,7.43
2022-10-29T10:46:40.874Z,7.10
2022-10-29T10:47:42.803Z,7.55
2022-10-29T10:48:39.491Z,7.10
2022-10-29T10:49:38.626Z,4.13
2022-10-29T10:50:36.529Z,4.30
2022-10-29T10:51:35.945Z,3.78
2022-10-29T10:52:32.708Z,6.10
2022-10-29T10:53:29.368Z,6.78
2022-10-29T10:54:28.685Z,7.82
2022-10-29T10:55:34.220Z,7.20
2022-10-29T10:56:31.321Z,6.70
2022-10-29T10:57:36.690Z,5.53
2022-10-29T10:58:45.167Z,9.27
2022-10-29T10:59:49.912Z,4.95
2022-10-29T11:01:05.641Z,9.43
2022-10-29T11:02:04.222Z,4.53
2022-10-29T11:03:19.774Z,5.30
2022-10-29T11:04:26.843Z,5.50
2022-10-29T11:05:33.878Z,5.65
2022-10-29T11:06:39.002Z,4.00
2022-10-29T11:07:41.598Z,3.35
2022-10-29T11:08:45.334Z,6.40
2022-10-29T11:09:50.146Z,6.03
2022-10-29T11:10:55.945Z,4.97
2022-10-29T11:12:13.647Z,7.80
2022-10-29T11:13:16.749Z,7.63
2022-10-29T11:14:22.251Z,5.65
2022-10-29T11:15:38.340Z,6.97
2022-10-29T11:16:45.542Z,5.82
2022-10-29T11:17:54.299Z,3.67
2022-10-29T11:19:00.844Z,6.32
2022-10-29T11:20:07.060Z,4.75
2022-10-29T11:21:09.695Z,4.32
2022-10-29T11:22:26.412Z,4.90
2022-10-29T11:23:25.928Z,6.78
2022-10-29T11:24:32.465Z,6.22
2022-10-29T11:25:49.079Z,6.47
2022-10-29T11:26:50.268Z,4.30
2022-10-29T11:28:06.397Z,6.63
2022-10-29T11:29:15.473Z,4.53
2022-10-29T11:30:16.815Z,3.42
2022-10-29T11:31:41.016Z,5.85
2022-10-29T11:33:06.068Z,4.63
2022-10-29T11:34:34.480Z,5.22
2022-10-29T11:35:44.721Z,5.25
2022-10-29T11:36:55.144Z,6.10
2022-10-29T11:38:00.813Z,4.00
2022-10-29T11:39:13.258Z,4.72
2022-10-29T11:40:16.346Z,4.22
2022-10-29T11:41:21.610Z,4.40
2022-10-29T11:42:18.210Z,4.45
2022-10-29T11:43:19.695Z,3.40
2022-10-29T11:44:20.251Z,6.80
2022-10-29T11:45:36.169Z,6.03
2022-10-29T11:46:44.646Z,4.93
2022-10-29T11:48:03.873Z,4.65
2022-10-29T11:49:45.326Z,4.10
2022-10-29T11:50:58.992Z,5.70
2022-10-29T11:52:11.221Z,6.38
2022-10-29T11:53:26.264Z,4.27
2022-10-29T11:54:41.257Z,5.68
2022-10-29T11:56:02.020Z,4.75
2022-10-29T11:57:04.117Z,7.00
2022-10-29T11:58:34.252Z,3.13
2022-10-29T11:59:51.843Z,3.85
2022-10-29T12:00:48.397Z,3.80
2022-10-29T12:02:05.193Z,7.13
2022-10-29T12:03:25.056Z,3.95
2022-10-29T12:04:30.709Z,3.58
2022-10-29T12:05:51.202Z,3.85
2022-10-29T12:07:02.338Z,4.28
2022-10-29T12:08:26.561Z,7.18
2022-10-29T12:09:59.709Z,7.40
2022-10-29T12:11:18.041Z,4.13
2022-10-29T12:12:33.569Z,4.20
2022-10-29T12:13:42.189Z,3.15
2022-10-29T12:14:54.437Z,5.82
2022-10-29T12:16:44.753Z,3.90
2022-10-29T12:17:52.040Z,9.23
2022-10-29T12:19:02.268Z,3.30
2022-10-29T12:20:03.675Z,9.40
2022-10-29T12:21:32.265Z,4.38
2022-10-29T12:22:34.542Z,5.90
2022-10-29T12:23:54.500Z,7.47
2022-10-29T12:25:08.702Z,5.95
2022-10-29T12:26:20.197Z,5.80
2022-10-29T12:27:29.030Z,7.10
2022-10-29T12:28:50.106Z,15.68
2022-10-29T12:29:52.805Z,6.75
2022-10-29T12:30:58.486Z,8.00
2022-10-29T12:31:59.799Z,4.05
2022-10-29T12:33:08.628Z,7.18
2022-10-29T12:34:23.265Z,2.45
2022-10-29T12:35:47.331Z,4.65
2022-10-29T12:36:57.652Z,6.07
2022-10-29T12:38:31.931Z,4.57
2022-10-29T12:39:37.282Z,6.82
2022-10-29T12:40:36.681Z,6.25
2022-10-29T12:41:42.260Z,3.25
2022-10-29T12:42:39.631Z,3.83
2022-10-29T12:43:39.897Z,4.05
2022-10-29T12:44:48.636Z,7.22
2022-10-29T12:46:19.119Z,5.57
2022-10-29T12:47:24.102Z,6.45
2022-10-29T12:48:31.755Z,6.78
2022-10-29T12:50:17.633Z,8.07
2022-10-29T12:51:35.104Z,4.38
2022-10-29T12:52:46.089Z,4.43
2022-10-29T12:54:04.040Z,3.65
2022-10-29T12:55:02.109Z,6.30
2022-10-29T12:55:59.085Z,3.88
2022-10-29T12:56:58.968Z,4.03
2022-10-29T12:57:55.552Z,5.85
2022-10-29T12:58:57.209Z,5.78
2022-10-29T12:59:53.852Z,2.45
2022-10-29T13:00:50.563Z,3.50
2022-10-29T13:02:10.341Z,5.00
2022-10-29T13:03:04.288Z,6.82
2022-10-29T13:04:04.731Z,4.65
2022-10-29T13:05:09.602Z,8.48
2022-10-29T13:06:49.742Z,8.85
2022-10-29T13:07:46.352Z,5.35
2022-10-29T13:08:55.568Z,3.67
2022-10-29T13:10:24.536Z,3.13
2022-10-29T13:11:25.233Z,6.18
2022-10-29T13:12:53.852Z,7.35
2022-10-29T13:13:54.802Z,3.50
2022-10-29T13:15:03.052Z,4.72
2022-10-29T13:16:07.705Z,5.32
2022-10-29T13:17:07.896Z,3.42
2022-10-29T13:18:25.542Z,3.75
2022-10-29T13:19:34.974Z,4.18
2022-10-29T13:20:41.922Z,6.20
2022-10-29T13:22:17.393Z,3.25
2022-10-29T13:23:22.615Z,2.63
2022-10-29T13:24:22.483Z,5.70
2022-10-29T13:25:34.281Z,5.65
2022-10-29T13:26:54.036Z,4.72
2022-10-29T13:27:50.593Z,7.70
2022-10-29T13:28:48.861Z,4.82
2022-10-29T13:30:10.013Z,3.55
2022-10-29T13:31:06.529Z,6.88
2022-10-29T13:32:05.623Z,4.40
2022-10-29T13:33:22.183Z,3.42
2022-10-29T13:34:58.492Z,6.43
2022-10-29T13:35:55.945Z,6.78
2022-10-29T13:36:52.543Z,6.15
2022-10-29T13:37:51.330Z,4.57
2022-10-29T13:39:04.361Z,7.80
2022-10-29T13:40:21.861Z,8.77
2022-10-29T13:41:43.594Z,7.18
2022-10-29T13:42:40.494Z,5.53
2022-10-29T13:43:37.366Z,4.40
2022-10-29T13:44:37.913Z,6.13
2022-10-29T13:45:38.245Z,3.42
2022-10-29T13:46:45.420Z,4.25
2022-10-29T13:47:43.112Z,6.15
2022-10-29T13:48:40.979Z,4.55
2022-10-29T13:49:37.541Z,2.55
2022-10-29T13:50:35.223Z,6.07
2022-10-29T13:51:39.428Z,3.50
2022-10-29T13:52:37.418Z,3.72